首页
METAR-TAF:

METAR-TAF

机场 :

伊莎貝拉國際機場

聖多明哥, 多米尼加共和国

纬度: 18-34-32N, 经度: 069-58-53W, 海拔: 15米

当前天气观测

该预报发布于44分钟前的23:00 UTC
静风
温度 29°C
湿度 79%
气压 1015 hPa
能见度10公里或以上
散云层高于2000英尺
多云层高于7000英尺

METAR: MDJB 282300Z 00000KT 9999 SCT020 BKN070 29/25 Q1015

时间: 19:44 (23:44 UTC)

预报

该预报发布于1小时和44分钟前的22:00 UTC
预报有效从29日的 00点(UTC)到 30日的 00点(UTC)
风速10节,风向
能见度10公里或以上
多云层高于2000英尺
多云层高于7000英尺
多云层高于30000英尺
几率 30%
从 29日的 00点(UTC)到 29日的 05点(UTC)
能見度: 7000
少量云层高于1600英尺, 积雨云.
多云层高于1800英尺
多云层高于7000英尺
雷暴, 小雨,

TAF: MDJB 282200Z 2900/3000 17010KT 9999 BKN020 BKN070 BKN300 PROB30 2900/2905 7000 -TSRA FEW016CB BKN018 BKN070

超过4000个机场的气象观测和天气预报(METAR&TAF报告)。

可查询的气象台以黄色和红色小点在地图上表示。

将鼠标移到小点上方,可查看气象台名称。

然后点击查看天气观测和预报。

如需切换地图:点击带黑十字的绿色按钮放大地图;点击带横线的绿色按钮缩小地图;或者点击绿色箭头查看邻近地区的地图。


METAR-TAF: